Terminal Aerodrome Forecast
Issued by NWS

Home | Current Version | Previous Version | Graphics & Text | Print | Product List | Glossary On
Versions: 1 2 3 4 5 6 7 8 9 10 11 12 13 14 15 16
000
FTUS43 KTOP 251100
TAFMHK
TAF
KMHK 251120Z 2512/2612 35018G28KT P6SM BKN025
     FM252100 36009KT P6SM SCT025
     FM260600 23005KT P6SM FEW100=

USA.gov is the U.S. government's official web portal to all federal, state and local government web resources and services.